createdAt,value
2023-03-13T00:01:14.201Z,14.40
2023-03-13T00:03:41.763Z,12.77
2023-03-13T00:06:09.312Z,12.57
2023-03-13T00:08:36.696Z,15.27
2023-03-13T00:11:06.013Z,12.80
2023-03-13T00:13:33.620Z,10.48
2023-03-13T00:16:02.141Z,11.68
2023-03-13T00:18:29.552Z,11.15
2023-03-13T00:21:12.036Z,11.20
2023-03-13T00:23:39.461Z,13.27
2023-03-13T00:26:09.350Z,12.57
2023-03-13T00:28:38.189Z,12.30
2023-03-13T00:31:08.121Z,14.57
2023-03-13T00:33:36.784Z,16.42
2023-03-13T00:36:08.371Z,10.20
2023-03-13T00:38:36.462Z,13.57
2023-03-13T00:41:08.185Z,12.57
2023-03-13T00:43:35.660Z,12.45
2023-03-13T00:46:02.987Z,12.15
2023-03-13T00:48:31.368Z,14.40
2023-03-13T00:51:00.836Z,13.88
2023-03-13T00:53:28.276Z,12.48
2023-03-13T00:55:59.111Z,14.20
2023-03-13T00:58:28.609Z,14.15
2023-03-13T01:00:56.188Z,14.57
2023-03-13T01:03:26.893Z,10.75
2023-03-13T01:05:57.349Z,11.30
2023-03-13T01:08:27.169Z,13.00
2023-03-13T01:11:04.566Z,14.98
2023-03-13T01:13:33.461Z,10.80
2023-03-13T01:16:20.014Z,15.18
2023-03-13T01:18:49.982Z,11.82
2023-03-13T01:21:19.928Z,11.23
2023-03-13T01:23:48.245Z,12.50
2023-03-13T01:26:17.954Z,13.55
2023-03-13T01:28:45.899Z,11.18
2023-03-13T01:31:24.709Z,12.90
2023-03-13T01:33:55.360Z,12.00
2023-03-13T01:36:23.422Z,9.40
2023-03-13T01:38:53.903Z,10.68
2023-03-13T01:41:22.598Z,13.00
2023-03-13T01:43:50.718Z,14.05
2023-03-13T01:46:20.181Z,14.88
2023-03-13T01:49:12.107Z,14.25
2023-03-13T01:51:54.000Z,13.23
2023-03-13T01:54:30.929Z,12.68
2023-03-13T01:57:08.182Z,12.60
2023-03-13T01:59:42.707Z,14.00
2023-03-13T02:02:11.452Z,14.23
2023-03-13T02:04:41.678Z,14.15
2023-03-13T02:07:16.269Z,12.82
2023-03-13T02:09:51.202Z,11.63
2023-03-13T02:12:24.508Z,11.98
2023-03-13T02:14:52.132Z,15.10
2023-03-13T02:17:20.989Z,13.45
2023-03-13T02:19:52.008Z,15.68
2023-03-13T02:22:31.353Z,16.65
2023-03-13T02:25:25.824Z,14.55
2023-03-13T02:28:01.690Z,15.73
2023-03-13T02:30:30.400Z,14.10
2023-03-13T02:32:57.904Z,16.92
2023-03-13T02:35:25.346Z,14.05
2023-03-13T02:37:57.155Z,14.52
2023-03-13T02:40:29.630Z,16.00
2023-03-13T02:43:00.474Z,13.50
2023-03-13T02:45:28.645Z,15.98
2023-03-13T02:47:55.778Z,14.43
2023-03-13T02:50:23.935Z,14.55
2023-03-13T02:52:56.550Z,16.13
2023-03-13T02:55:29.752Z,14.77
2023-03-13T02:57:57.219Z,12.45
2023-03-13T03:00:26.892Z,16.58
2023-03-13T03:02:56.072Z,16.55
2023-03-13T03:05:23.398Z,13.38
2023-03-13T03:07:51.686Z,17.13
2023-03-13T03:10:19.109Z,16.55
2023-03-13T03:12:46.740Z,17.33
2023-03-13T03:15:14.494Z,15.63
2023-03-13T03:17:45.280Z,16.05
2023-03-13T03:20:12.739Z,16.90
2023-03-13T03:22:42.983Z,17.50
2023-03-13T03:25:10.346Z,12.90
2023-03-13T03:27:38.153Z,17.15
2023-03-13T03:30:08.617Z,15.63
2023-03-13T03:32:37.687Z,14.60
2023-03-13T03:35:05.149Z,12.85
2023-03-13T03:37:32.333Z,15.45
2023-03-13T03:40:01.271Z,14.00
2023-03-13T03:42:31.128Z,19.00
2023-03-13T03:44:58.269Z,16.13
2023-03-13T03:47:25.703Z,15.07
2023-03-13T03:49:53.006Z,14.52
2023-03-13T03:52:20.409Z,16.77
2023-03-13T03:54:47.942Z,17.25
2023-03-13T03:57:16.610Z,18.02
2023-03-13T03:59:45.548Z,17.88
2023-03-13T04:02:12.823Z,15.70
2023-03-13T04:04:41.751Z,17.15
2023-03-13T04:07:12.227Z,17.60
2023-03-13T04:09:41.239Z,18.40
2023-03-13T04:12:11.273Z,16.70
2023-03-13T04:14:42.781Z,15.25
2023-03-13T04:17:12.378Z,16.33
2023-03-13T04:19:39.871Z,17.70
2023-03-13T04:22:07.277Z,15.10
2023-03-13T04:24:34.953Z,15.82
2023-03-13T04:27:03.835Z,15.63
2023-03-13T04:29:31.254Z,20.05
2023-03-13T04:32:04.572Z,19.70
2023-03-13T04:34:32.948Z,18.10
2023-03-13T04:37:10.747Z,18.42
2023-03-13T04:39:51.181Z,17.30
2023-03-13T04:42:38.242Z,17.35
2023-03-13T04:45:25.226Z,18.83
2023-03-13T04:48:00.058Z,16.05
2023-03-13T04:50:43.201Z,17.65
2023-03-13T04:53:21.281Z,23.67
2023-03-13T04:56:08.311Z,21.38
2023-03-13T04:58:55.348Z,19.02
2023-03-13T05:01:36.220Z,17.65
2023-03-13T05:04:15.332Z,22.58
2023-03-13T05:06:56.534Z,19.17
2023-03-13T05:12:10.512Z,20.60
2023-03-13T05:14:57.505Z,19.30
2023-03-13T05:17:41.958Z,18.15
2023-03-13T05:20:29.026Z,27.73
2023-03-13T05:23:09.623Z,20.50
2023-03-13T05:25:50.547Z,21.20
2023-03-13T05:28:31.113Z,25.17
2023-03-13T05:31:18.301Z,18.80
2023-03-13T05:34:05.438Z,19.42
2023-03-13T05:36:45.101Z,21.42
2023-03-13T05:39:32.181Z,17.92
2023-03-13T05:42:16.677Z,21.02
2023-03-13T05:44:56.740Z,16.15
2023-03-13T05:47:43.790Z,18.70
2023-03-13T05:50:30.892Z,18.25
2023-03-13T05:53:10.527Z,17.83
2023-03-13T05:55:49.443Z,19.75
2023-03-13T05:58:36.653Z,17.83
2023-03-13T06:01:23.635Z,18.27
2023-03-13T06:03:58.066Z,18.73
2023-03-13T06:06:26.356Z,15.75
2023-03-13T06:08:56.043Z,18.35
2023-03-13T06:11:27.022Z,21.15
2023-03-13T06:13:55.174Z,16.08
2023-03-13T06:16:32.047Z,21.48
2023-03-13T06:19:12.066Z,25.10
2023-03-13T06:21:39.412Z,29.05
2023-03-13T06:24:07.002Z,33.60
2023-03-13T06:26:34.095Z,27.17
2023-03-13T06:29:01.227Z,18.95
2023-03-13T06:31:28.375Z,18.70
2023-03-13T06:33:56.097Z,16.35
2023-03-13T06:36:24.538Z,18.38
2023-03-13T06:38:52.003Z,14.52
2023-03-13T06:41:19.412Z,14.98
2023-03-13T06:43:46.675Z,12.93
2023-03-13T06:46:18.668Z,13.48
2023-03-13T06:48:46.538Z,16.52
2023-03-13T06:51:15.604Z,12.80
2023-03-13T06:53:42.988Z,15.73
2023-03-13T06:56:11.027Z,15.35
2023-03-13T06:58:38.127Z,12.50
2023-03-13T07:01:08.577Z,15.50
2023-03-13T07:03:36.657Z,11.60
2023-03-13T07:06:05.944Z,14.25
2023-03-13T07:08:33.674Z,12.13
2023-03-13T07:11:04.927Z,14.90
2023-03-13T07:13:32.798Z,12.77
2023-03-13T07:16:04.374Z,12.98
2023-03-13T07:18:32.743Z,12.57
2023-03-13T07:21:01.535Z,14.27
2023-03-13T07:23:29.989Z,12.15
2023-03-13T07:25:59.504Z,14.10
2023-03-13T07:28:28.233Z,14.45
2023-03-13T07:30:55.652Z,15.05
2023-03-13T07:33:22.916Z,14.93
2023-03-13T07:35:51.894Z,11.95
2023-03-13T07:38:19.984Z,14.30
2023-03-13T07:40:50.986Z,11.75
2023-03-13T07:43:18.970Z,12.63
2023-03-13T07:46:07.364Z,11.20
2023-03-13T07:48:37.136Z,13.57
2023-03-13T07:51:07.837Z,13.48
2023-03-13T07:53:35.578Z,12.15
2023-03-13T07:56:05.537Z,14.88
2023-03-13T07:58:35.746Z,13.40
2023-03-13T08:01:11.207Z,17.90
2023-03-13T08:03:39.280Z,12.98
2023-03-13T08:06:09.756Z,15.02
2023-03-13T08:08:37.581Z,13.93
2023-03-13T08:11:07.718Z,14.77
2023-03-13T08:13:35.865Z,13.52
2023-03-13T08:16:04.102Z,13.48
2023-03-13T08:18:35.061Z,13.63
2023-03-13T08:21:05.377Z,13.55
2023-03-13T08:23:33.255Z,15.27
2023-03-13T08:26:09.311Z,15.15
2023-03-13T08:28:37.163Z,17.02
2023-03-13T08:31:09.480Z,16.23
2023-03-13T08:33:36.638Z,14.52
2023-03-13T08:36:11.149Z,12.73
2023-03-13T08:41:05.464Z,14.30
2023-03-13T08:43:32.620Z,12.18
2023-03-13T08:45:59.726Z,17.02
2023-03-13T08:48:26.990Z,14.55
2023-03-13T08:51:11.317Z,16.38
2023-03-13T08:53:39.801Z,12.25
2023-03-13T08:56:08.552Z,13.23
2023-03-13T08:58:35.734Z,10.80
2023-03-13T09:01:06.079Z,14.52
2023-03-13T09:03:33.542Z,12.68
2023-03-13T09:06:01.435Z,13.38
2023-03-13T09:08:30.412Z,13.73
2023-03-13T09:11:00.138Z,11.65
2023-03-13T09:13:29.700Z,14.60
2023-03-13T09:15:59.112Z,17.70
2023-03-13T09:18:27.452Z,14.00
2023-03-13T09:20:54.764Z,11.63
2023-03-13T09:23:23.110Z,12.73
2023-03-13T09:25:53.502Z,12.40
2023-03-13T09:28:21.138Z,13.73
2023-03-13T09:30:50.223Z,16.35
2023-03-13T09:33:18.790Z,12.73
2023-03-13T09:35:50.889Z,11.50
2023-03-13T09:38:19.666Z,12.80
2023-03-13T09:41:04.936Z,12.85
2023-03-13T09:43:32.863Z,12.60
2023-03-13T09:46:03.999Z,11.23
2023-03-13T09:48:37.106Z,15.13
2023-03-13T09:51:13.735Z,12.45
2023-03-13T09:54:02.202Z,14.48
2023-03-13T09:56:40.740Z,12.77
2023-03-13T09:59:48.377Z,14.07
2023-03-13T10:02:23.909Z,11.95
2023-03-13T10:04:58.187Z,12.05
2023-03-13T10:07:25.301Z,14.15
2023-03-13T10:09:53.849Z,12.25
2023-03-13T10:12:24.944Z,9.05
2023-03-13T10:15:13.043Z,12.45
2023-03-13T10:17:40.731Z,12.68
2023-03-13T10:20:18.090Z,13.10
2023-03-13T10:22:49.123Z,15.13
2023-03-13T10:25:38.482Z,13.35
2023-03-13T10:28:06.777Z,11.10
2023-03-13T10:30:36.532Z,11.07
2023-03-13T10:33:22.590Z,11.27
2023-03-13T10:36:02.299Z,10.93
2023-03-13T10:38:29.867Z,10.15
2023-03-13T10:40:59.486Z,14.27
2023-03-13T10:43:28.866Z,13.68
2023-03-13T10:45:56.151Z,11.90
2023-03-13T10:48:26.547Z,12.75
2023-03-13T10:51:02.346Z,13.70
2023-03-13T10:53:29.681Z,10.30
2023-03-13T10:56:04.946Z,11.52
2023-03-13T10:58:45.604Z,10.20
2023-03-13T11:01:22.622Z,9.27
2023-03-13T11:03:52.266Z,11.65
2023-03-13T11:06:36.230Z,9.07
2023-03-13T11:09:13.165Z,14.20
2023-03-13T11:11:52.835Z,13.02
2023-03-13T11:14:23.693Z,11.60
2023-03-13T11:16:55.088Z,12.85
2023-03-13T11:19:45.446Z,9.70
2023-03-13T11:22:15.905Z,10.98
2023-03-13T11:24:46.541Z,9.07
2023-03-13T11:27:41.461Z,9.85
2023-03-13T11:30:19.614Z,11.07
2023-03-13T11:32:47.827Z,10.77
2023-03-13T11:35:42.489Z,8.70
2023-03-13T11:38:21.160Z,10.98
2023-03-13T11:40:54.778Z,10.15
2023-03-13T11:43:47.484Z,8.77
2023-03-13T11:46:27.850Z,8.77
2023-03-13T11:48:59.513Z,9.27
2023-03-13T11:51:32.967Z,9.77
2023-03-13T11:54:39.948Z,10.02
2023-03-13T11:57:15.643Z,7.22
2023-03-13T12:00:02.936Z,10.52
2023-03-13T12:02:47.944Z,7.88
2023-03-13T12:05:19.061Z,8.75
2023-03-13T12:08:02.088Z,9.10
2023-03-13T12:10:52.842Z,9.43
2023-03-13T12:13:26.645Z,10.10
2023-03-13T12:15:58.850Z,11.68
2023-03-13T12:18:34.179Z,12.82
2023-03-13T12:21:21.267Z,10.90
2023-03-13T12:24:09.766Z,9.15
2023-03-13T12:26:43.006Z,8.60
2023-03-13T12:29:37.444Z,10.63
2023-03-13T12:32:33.492Z,8.50
2023-03-13T12:35:23.848Z,8.00
2023-03-13T12:37:55.756Z,11.30
2023-03-13T12:40:43.763Z,10.15
2023-03-13T12:43:17.448Z,10.23
2023-03-13T12:46:01.626Z,7.85
2023-03-13T12:48:48.833Z,9.98
2023-03-13T12:51:30.539Z,7.50
2023-03-13T12:54:05.117Z,8.20
2023-03-13T12:56:45.632Z,10.30
2023-03-13T12:59:25.316Z,9.02
2023-03-13T13:01:56.331Z,9.07
2023-03-13T13:04:29.337Z,8.02
2023-03-13T13:07:04.598Z,7.25
2023-03-13T13:09:37.008Z,11.77
2023-03-13T13:12:20.275Z,8.60
2023-03-13T13:14:48.363Z,12.35
2023-03-13T13:17:19.198Z,7.78
2023-03-13T13:19:47.585Z,8.07
2023-03-13T13:22:37.714Z,7.95
2023-03-13T13:25:13.327Z,10.57
2023-03-13T13:27:40.467Z,7.55
2023-03-13T13:30:23.917Z,6.97
2023-03-13T13:32:54.500Z,8.48
2023-03-13T13:35:32.240Z,11.23
2023-03-13T13:38:19.357Z,8.10
2023-03-13T13:41:09.778Z,7.95
2023-03-13T13:43:38.956Z,6.35
2023-03-13T13:46:25.515Z,9.23
2023-03-13T13:49:14.304Z,6.15
2023-03-13T13:52:03.551Z,6.53
2023-03-13T13:54:46.304Z,6.25
2023-03-13T13:57:19.755Z,7.20
2023-03-13T13:59:49.670Z,5.75
2023-03-13T14:02:20.849Z,8.35
2023-03-13T14:04:52.488Z,6.47
2023-03-13T14:07:29.493Z,3.95
2023-03-13T14:10:07.167Z,8.25
2023-03-13T14:12:38.739Z,4.22
2023-03-13T14:15:14.108Z,5.60
2023-03-13T14:17:48.291Z,5.78
2023-03-13T14:20:23.342Z,6.78
2023-03-13T14:22:51.514Z,6.57
2023-03-13T14:25:18.597Z,7.63
2023-03-13T14:27:47.658Z,6.50
2023-03-13T14:30:17.798Z,6.82
2023-03-13T14:32:45.334Z,7.15
2023-03-13T14:35:17.035Z,7.93
2023-03-13T14:37:47.495Z,5.15
2023-03-13T14:40:24.316Z,8.55
2023-03-13T14:42:54.316Z,5.70
2023-03-13T14:45:28.195Z,5.78
2023-03-13T14:48:00.752Z,7.13
2023-03-13T14:50:27.876Z,13.60
2023-03-13T14:53:01.978Z,5.20
2023-03-13T14:55:33.015Z,7.05
2023-03-13T14:58:07.408Z,4.72
2023-03-13T15:00:39.426Z,5.45
2023-03-13T15:03:29.221Z,5.05
2023-03-13T15:06:12.596Z,8.48
2023-03-13T15:08:42.629Z,7.38
2023-03-13T15:11:19.495Z,6.15
2023-03-13T15:13:46.664Z,6.88
2023-03-13T15:16:20.240Z,6.30
2023-03-13T15:18:49.010Z,3.65
2023-03-13T15:21:17.418Z,6.25
2023-03-13T15:23:51.180Z,7.47
2023-03-13T15:26:18.473Z,8.00
2023-03-13T15:28:45.736Z,5.75
2023-03-13T15:31:14.561Z,6.15
2023-03-13T15:33:43.290Z,7.22
2023-03-13T15:36:11.275Z,6.20
2023-03-13T15:38:40.656Z,6.28
2023-03-13T15:41:09.488Z,6.38
2023-03-13T15:43:37.123Z,6.53
2023-03-13T15:46:05.706Z,6.00
2023-03-13T15:48:33.127Z,4.95
2023-03-13T15:51:02.623Z,9.55
2023-03-13T15:53:32.799Z,8.85
2023-03-13T15:56:02.083Z,6.45
2023-03-13T15:58:30.272Z,6.75
2023-03-13T16:00:58.114Z,10.35
2023-03-13T16:03:28.426Z,7.05
2023-03-13T16:05:57.253Z,5.63
2023-03-13T16:08:35.370Z,7.60
2023-03-13T16:11:04.592Z,8.38
2023-03-13T16:13:31.684Z,8.35
2023-03-13T16:15:58.982Z,8.50
2023-03-13T16:18:26.275Z,5.25
2023-03-13T16:20:54.251Z,5.45
2023-03-13T16:23:21.434Z,5.15
2023-03-13T16:25:49.448Z,46.75
2023-03-13T16:28:16.904Z,6.22
2023-03-13T16:30:44.352Z,6.47
2023-03-13T16:33:11.857Z,3.58
2023-03-13T16:35:39.465Z,4.32
2023-03-13T16:38:08.729Z,6.63
2023-03-13T16:40:36.138Z,6.93
2023-03-13T16:43:03.547Z,9.07
2023-03-13T16:45:30.923Z,7.50
2023-03-13T16:47:58.209Z,4.85
2023-03-13T16:50:35.338Z,9.25
2023-03-13T16:53:03.349Z,8.95
2023-03-13T16:55:36.754Z,5.00
2023-03-13T16:58:05.091Z,6.80
2023-03-13T17:00:32.923Z,6.95
2023-03-13T17:03:01.512Z,11.88
2023-03-13T17:05:28.877Z,7.93
2023-03-13T17:07:56.220Z,7.78
2023-03-13T17:10:24.623Z,11.32
2023-03-13T17:12:51.989Z,9.70
2023-03-13T17:15:20.275Z,12.48
2023-03-13T17:17:51.994Z,7.03
2023-03-13T17:20:25.302Z,6.88
2023-03-13T17:22:53.215Z,10.75
2023-03-13T17:25:20.412Z,5.95
2023-03-13T17:27:48.609Z,7.32
2023-03-13T17:30:23.894Z,11.43
2023-03-13T17:32:51.422Z,11.38
2023-03-13T17:35:20.526Z,14.35
2023-03-13T17:37:48.572Z,9.43
2023-03-13T17:40:21.034Z,9.95
2023-03-13T17:42:48.844Z,13.10
2023-03-13T17:45:16.454Z,13.88
2023-03-13T17:47:43.766Z,20.60
2023-03-13T17:50:17.804Z,13.60
2023-03-13T17:52:45.186Z,8.80
2023-03-13T17:55:12.787Z,9.05
2023-03-13T17:57:40.865Z,6.68
2023-03-13T18:00:23.429Z,10.52
2023-03-13T18:02:51.099Z,11.77
2023-03-13T18:05:18.855Z,7.70
2023-03-13T18:07:46.748Z,8.60
2023-03-13T18:10:24.531Z,7.72
2023-03-13T18:12:52.509Z,8.07
2023-03-13T18:15:22.463Z,9.02
2023-03-13T18:17:50.385Z,10.23
2023-03-13T18:20:21.077Z,12.30
2023-03-13T18:22:48.406Z,8.73
2023-03-13T18:25:15.993Z,8.85
2023-03-13T18:27:43.593Z,8.32
2023-03-13T18:30:16.612Z,9.57
2023-03-13T18:32:43.920Z,11.50
2023-03-13T18:35:13.598Z,10.00
2023-03-13T18:37:42.756Z,7.97
2023-03-13T18:40:19.782Z,7.97
2023-03-13T18:42:47.810Z,6.80
2023-03-13T18:45:17.907Z,5.60
2023-03-13T18:47:45.812Z,7.93
2023-03-13T18:50:20.367Z,10.75
2023-03-13T18:52:47.625Z,7.97
2023-03-13T18:55:15.116Z,8.07
2023-03-13T18:57:43.164Z,8.55
2023-03-13T19:00:17.864Z,8.27
2023-03-13T19:05:13.395Z,6.00
2023-03-13T19:07:41.026Z,8.63
2023-03-13T19:10:21.224Z,6.30
2023-03-13T19:12:48.931Z,9.35
2023-03-13T19:15:16.823Z,6.10
2023-03-13T19:17:44.795Z,5.47
2023-03-13T19:20:16.097Z,8.02
2023-03-13T19:22:43.896Z,8.20
2023-03-13T19:25:11.520Z,12.32
2023-03-13T19:27:40.912Z,6.93
2023-03-13T19:30:20.760Z,7.10
2023-03-13T19:32:48.266Z,7.47
2023-03-13T19:35:18.915Z,6.72
2023-03-13T19:37:46.428Z,19.80
2023-03-13T19:40:26.136Z,19.65
2023-03-13T19:42:53.386Z,11.90
2023-03-13T19:45:22.236Z,9.00
2023-03-13T19:47:49.379Z,6.90
2023-03-13T19:50:21.160Z,7.90
2023-03-13T19:52:48.878Z,8.55
2023-03-13T19:55:16.346Z,11.57
2023-03-13T19:57:44.039Z,12.20
2023-03-13T20:00:23.177Z,14.68
2023-03-13T20:02:52.391Z,13.43
2023-03-13T20:05:19.515Z,9.85
2023-03-13T20:07:48.390Z,10.80
2023-03-13T20:10:15.589Z,15.23
2023-03-13T20:12:42.957Z,12.40
2023-03-13T20:15:11.163Z,20.58
2023-03-13T20:17:39.460Z,16.77
2023-03-13T20:20:08.841Z,16.33
2023-03-13T20:22:36.758Z,15.10
2023-03-13T20:25:05.211Z,20.70
2023-03-13T20:27:32.316Z,13.50
2023-03-13T20:30:00.070Z,11.88
2023-03-13T20:32:27.884Z,10.98
2023-03-13T20:34:55.045Z,11.32
2023-03-13T20:37:22.123Z,9.77
2023-03-13T20:39:49.200Z,10.60
2023-03-13T20:42:16.683Z,7.15
2023-03-13T20:44:44.181Z,8.75
2023-03-13T20:47:11.418Z,10.07
2023-03-13T20:49:41.082Z,11.45
2023-03-13T20:52:08.723Z,8.75
2023-03-13T20:54:35.924Z,11.98
2023-03-13T20:57:04.412Z,6.90
2023-03-13T20:59:32.078Z,7.18
2023-03-13T21:01:59.297Z,7.68
2023-03-13T21:04:26.690Z,8.15
2023-03-13T21:06:54.380Z,8.13
2023-03-13T21:09:21.597Z,9.98
2023-03-13T21:11:49.138Z,6.03
2023-03-13T21:14:16.161Z,6.35
2023-03-13T21:16:44.261Z,7.47
2023-03-13T21:19:11.437Z,6.93
2023-03-13T21:21:39.025Z,7.82
2023-03-13T21:24:06.664Z,6.95
2023-03-13T21:26:33.781Z,10.73
2023-03-13T21:29:00.999Z,9.80
2023-03-13T21:31:28.414Z,9.32
2023-03-13T21:33:55.847Z,9.63
2023-03-13T21:36:23.373Z,7.03
2023-03-13T21:38:51.197Z,4.05
2023-03-13T21:41:21.688Z,6.30
2023-03-13T21:43:49.097Z,7.18
2023-03-13T21:46:17.911Z,5.63
2023-03-13T21:51:13.473Z,7.57
2023-03-13T21:53:42.314Z,6.95
2023-03-13T21:56:15.080Z,6.00
2023-03-13T21:58:43.757Z,5.95
2023-03-13T22:01:11.596Z,7.72
2023-03-13T22:03:38.910Z,7.28
2023-03-13T22:06:13.877Z,5.95
2023-03-13T22:08:41.451Z,5.30
2023-03-13T22:11:08.707Z,6.75
2023-03-13T22:13:35.928Z,6.05
2023-03-13T22:16:03.223Z,8.00
2023-03-13T22:18:30.393Z,4.78
2023-03-13T22:20:58.567Z,8.45
2023-03-13T22:23:26.068Z,16.63
2023-03-13T22:25:56.620Z,5.25
2023-03-13T22:28:25.001Z,6.35
2023-03-13T22:30:52.241Z,6.25
2023-03-13T22:33:19.385Z,5.57
2023-03-13T22:35:52.622Z,6.68
2023-03-13T22:38:20.850Z,7.30
2023-03-13T22:40:49.345Z,5.95
2023-03-13T22:43:16.527Z,5.32
2023-03-13T22:45:43.711Z,9.43
2023-03-13T22:48:10.880Z,5.43
2023-03-13T22:50:38.012Z,5.97
2023-03-13T22:53:05.139Z,6.63
2023-03-13T22:55:33.433Z,7.25
2023-03-13T22:58:00.866Z,6.13
2023-03-13T23:00:28.159Z,5.00
2023-03-13T23:02:55.445Z,4.70
2023-03-13T23:05:22.486Z,3.58
2023-03-13T23:07:50.905Z,6.05
2023-03-13T23:10:19.261Z,4.40
2023-03-13T23:12:46.343Z,7.05
2023-03-13T23:15:13.488Z,5.60
2023-03-13T23:17:40.699Z,7.20
2023-03-13T23:20:13.451Z,5.57
2023-03-13T23:22:43.500Z,4.70
2023-03-13T23:25:12.243Z,4.60
2023-03-13T23:27:39.603Z,5.28
2023-03-13T23:30:08.877Z,8.40
2023-03-13T23:32:37.810Z,7.50
2023-03-13T23:35:05.640Z,5.00
2023-03-13T23:37:33.470Z,4.68
2023-03-13T23:40:01.657Z,4.03
2023-03-13T23:42:29.178Z,4.70
2023-03-13T23:44:56.603Z,4.35
2023-03-13T23:47:23.909Z,4.65
2023-03-13T23:49:52.235Z,4.18
2023-03-13T23:52:19.326Z,4.57
2023-03-13T23:54:46.414Z,5.30
2023-03-13T23:57:13.596Z,6.65
2023-03-13T23:59:40.770Z,5.50
